Airfield :
LOGIN :

Register | Disclaimer

   EN    FR    IT 

 










Legend :    VFR   Marginal VFR   IFR   Intensive IFR   Very Intensive IFR
Visi :
Ceiling :
>= 8 km
>= 3000ft
5 to 8 km
1000 to 3000 ft
1500m to 5 km
500 to 1000 ft
800 to 1500m
200 to 500 ft
< 800m
< 200 ft
Symbols :   Thunderstorms  Fog  Heavy snow  Heavy precipitations  Wind > 20 kt
SIGMETs :     Misc.  Thunderstorms  Icing  Turbulence  Mountain Waves  Volcanic Ashes






- Airport Elevation : 16 ft
- IATA code : AAE


DABB - Annaba-Rabah Bitat

CURRENT METAR :
  • 081030Z 22006KT CAVOK 20/10 Q1011

EXPIRED METARs :
  • 081000Z 22008KT CAVOK 19/11 Q1011
  • 080930Z 22007KT CAVOK 17/12 Q1012
  • 080900Z 21008KT CAVOK 15/12 Q1012
  • 080830Z 21004KT CAVOK 13/12 Q1012
  • 080800Z 20003KT CAVOK 12/12 Q1012
  • 080730Z 19004KT 4000 BR FEW016 SCT200 10/10 Q1012

TAF TAF DABB
Valid from the 08 at 06:00 until the 09 at 06:00 UTC


080500Z 0806/0906 19007KT 6000 FEW016 SCT040
TEMPO 0806/0809 2000 BR BKN008
PROB40
TEMPO 0806/0808 0300 FG BKN002
PROB30
TEMPO 0815/0824 27011KT FEW026TCU



MET'MAP, your aeronautical weather chart ! - Copyright ORBIFLY December 2007 - Disclaimer

ORBIFLY MET'MAP TEAM :

Programming & Development : Alexandra Zaïnal
Original concept : Baudouin d'Aumeries
Technical & hardware support : Manuel Goepfert
Assistance : Marc-Olivier Méhu




SOURCES & CREDITS :

   NOAA